sensor_id;sensor_type;location;lat;lon;timestamp;pressure;altitude;pressure_sealevel;temperature;humidity
69784;BME280;57054;51.978;4.498;2023-02-16T00:01:41;102376.09;;;6.15;96.45
69784;BME280;57054;51.978;4.498;2023-02-16T00:06:47;102370.03;;;6.15;96.79
69784;BME280;57054;51.978;4.498;2023-02-16T00:09:13;102373.47;;;6.14;96.57
69784;BME280;57054;51.978;4.498;2023-02-16T00:11:38;102368.28;;;6.14;96.77
69784;BME280;57054;51.978;4.498;2023-02-16T00:14:24;102368.28;;;6.14;97.04
69784;BME280;57054;51.978;4.498;2023-02-16T00:16:52;102365.66;;;6.12;96.86
69784;BME280;57054;51.978;4.498;2023-02-16T00:19:26;102359.59;;;6.10;97.00
69784;BME280;57054;51.978;4.498;2023-02-16T00:21:55;102363.94;;;6.10;97.06
69784;BME280;57054;51.978;4.498;2023-02-16T00:24:21;102367.41;;;6.06;96.44
69784;BME280;57054;51.978;4.498;2023-02-16T00:26:47;102368.25;;;6.05;96.63
69784;BME280;57054;51.978;4.498;2023-02-16T00:29:19;102354.38;;;6.04;96.71
69784;BME280;57054;51.978;4.498;2023-02-16T00:31:47;102368.25;;;6.05;96.81
69784;BME280;57054;51.978;4.498;2023-02-16T00:36:57;102363.03;;;6.03;96.96
69784;BME280;57054;51.978;4.498;2023-02-16T00:39:24;102360.44;;;6.03;96.95
69784;BME280;57054;51.978;4.498;2023-02-16T00:41:52;102364.78;;;6.04;97.05
69784;BME280;57054;51.978;4.498;2023-02-16T00:44:36;102351.78;;;6.03;97.18
69784;BME280;57054;51.978;4.498;2023-02-16T00:49:42;102356.13;;;6.01;97.37
69784;BME280;57054;51.978;4.498;2023-02-16T00:54:48;102351.78;;;6.01;97.32
69784;BME280;57054;51.978;4.498;2023-02-16T00:57:16;102345.72;;;6.01;97.50
69784;BME280;57054;51.978;4.498;2023-02-16T00:59:43;102343.97;;;6.00;97.60
69784;BME280;57054;51.978;4.498;2023-02-16T01:02:08;102341.34;;;6.00;97.69
69784;BME280;57054;51.978;4.498;2023-02-16T01:04:34;102357.84;;;5.99;97.38
69784;BME280;57054;51.978;4.498;2023-02-16T01:06:59;102354.34;;;5.96;97.63
69784;BME280;57054;51.978;4.498;2023-02-16T01:09:43;102347.44;;;5.95;97.40
69784;BME280;57054;51.978;4.498;2023-02-16T01:12:27;102342.22;;;5.95;97.62
69784;BME280;57054;51.978;4.498;2023-02-16T01:14:54;102333.53;;;5.95;97.65
69784;BME280;57054;51.978;4.498;2023-02-16T01:17:20;102340.47;;;5.96;97.74
69784;BME280;57054;51.978;4.498;2023-02-16T01:19:46;102332.63;;;5.94;97.78
69784;BME280;57054;51.978;4.498;2023-02-16T01:22:11;102330.94;;;5.95;97.88
69784;BME280;57054;51.978;4.498;2023-02-16T01:24:37;102337.03;;;5.95;97.95
69784;BME280;57054;51.978;4.498;2023-02-16T01:27:02;102330.09;;;5.96;98.15
69784;BME280;57054;51.978;4.498;2023-02-16T01:29:27;102334.44;;;5.95;98.16
69784;BME280;57054;51.978;4.498;2023-02-16T01:31:53;102330.94;;;5.95;98.09
69784;BME280;57054;51.978;4.498;2023-02-16T01:34:19;102334.38;;;5.94;98.11
69784;BME280;57054;51.978;4.498;2023-02-16T01:36:46;102334.38;;;5.92;97.65
69784;BME280;57054;51.978;4.498;2023-02-16T01:39:17;102328.31;;;5.92;97.79
69784;BME280;57054;51.978;4.498;2023-02-16T01:42:11;102326.56;;;5.92;97.86
69784;BME280;57054;51.978;4.498;2023-02-16T01:44:51;102322.25;;;5.94;98.04
69784;BME280;57054;51.978;4.498;2023-02-16T01:49:47;102326.56;;;5.94;98.32
69784;BME280;57054;51.978;4.498;2023-02-16T01:52:20;102331.78;;;5.94;98.32
69784;BME280;57054;51.978;4.498;2023-02-16T01:54:55;102320.53;;;5.93;98.19
69784;BME280;57054;51.978;4.498;2023-02-16T02:02:48;102320.50;;;5.92;98.21
69784;BME280;57054;51.978;4.498;2023-02-16T02:05:16;102333.50;;;5.90;97.90
69784;BME280;57054;51.978;4.498;2023-02-16T02:08:09;102317.06;;;5.91;98.11
69784;BME280;57054;51.978;4.498;2023-02-16T02:10:40;102323.13;;;5.92;98.25
69784;BME280;57054;51.978;4.498;2023-02-16T02:15:40;102322.25;;;5.91;98.45
69784;BME280;57054;51.978;4.498;2023-02-16T02:18:06;102319.66;;;5.91;98.43
69784;BME280;57054;51.978;4.498;2023-02-16T02:20:43;102310.09;;;5.92;98.43
69784;BME280;57054;51.978;4.498;2023-02-16T02:29:19;102297.97;;;5.92;98.61
69784;BME280;57054;51.978;4.498;2023-02-16T02:34:27;102291.06;;;5.91;98.67
69784;BME280;57054;51.978;4.498;2023-02-16T02:39:49;102278.91;;;5.93;98.66
69784;BME280;57054;51.978;4.498;2023-02-16T02:44:51;102270.22;;;5.94;99.05
69784;BME280;57054;51.978;4.498;2023-02-16T02:47:17;102278.03;;;5.94;98.99
69784;BME280;57054;51.978;4.498;2023-02-16T02:49:53;102269.38;;;5.94;98.73
69784;BME280;57054;51.978;4.498;2023-02-16T02:52:20;102272.84;;;5.94;98.88
69784;BME280;57054;51.978;4.498;2023-02-16T02:54:47;102272.84;;;5.94;99.15
69784;BME280;57054;51.978;4.498;2023-02-16T03:00:31;102262.44;;;5.94;99.07
69784;BME280;57054;51.978;4.498;2023-02-16T03:03:30;102257.22;;;5.94;99.35
69784;BME280;57054;51.978;4.498;2023-02-16T03:06:07;102252.91;;;5.95;99.36
69784;BME280;57054;51.978;4.498;2023-02-16T03:08:36;102256.41;;;5.95;99.57
69784;BME280;57054;51.978;4.498;2023-02-16T03:11:07;102250.31;;;5.93;99.46
69784;BME280;57054;51.978;4.498;2023-02-16T03:14:16;102264.16;;;5.94;99.54
69784;BME280;57054;51.978;4.498;2023-02-16T03:16:51;102260.72;;;5.95;99.45
69784;BME280;57054;51.978;4.498;2023-02-16T03:19:39;102271.13;;;5.96;99.63
69784;BME280;57054;51.978;4.498;2023-02-16T03:22:24;102270.28;;;5.96;99.51
69784;BME280;57054;51.978;4.498;2023-02-16T03:25:08;102264.22;;;5.95;99.57
69784;BME280;57054;51.978;4.498;2023-02-16T03:27:53;102259.81;;;5.94;99.59
69784;BME280;57054;51.978;4.498;2023-02-16T03:30:39;102264.16;;;5.92;99.09
69784;BME280;57054;51.978;4.498;2023-02-16T03:33:04;102259.81;;;5.93;99.26
69784;BME280;57054;51.978;4.498;2023-02-16T03:35:30;102265.03;;;5.90;98.57
69784;BME280;57054;51.978;4.498;2023-02-16T03:37:56;102270.22;;;5.88;98.13
69784;BME280;57054;51.978;4.498;2023-02-16T03:40:21;102258.94;;;5.89;98.25
69784;BME280;57054;51.978;4.498;2023-02-16T03:43:00;102257.25;;;5.91;98.49
69784;BME280;57054;51.978;4.498;2023-02-16T03:45:26;102252.03;;;5.91;98.62
69784;BME280;57054;51.978;4.498;2023-02-16T03:47:52;102254.63;;;5.93;98.86
69784;BME280;57054;51.978;4.498;2023-02-16T03:50:18;102253.78;;;5.94;98.80
69784;BME280;57054;51.978;4.498;2023-02-16T03:52:43;102246.00;;;5.95;98.97
69784;BME280;57054;51.978;4.498;2023-02-16T03:55:09;102251.22;;;5.97;98.92
69784;BME280;57054;51.978;4.498;2023-02-16T03:57:34;102246.00;;;5.97;99.21
69784;BME280;57054;51.978;4.498;2023-02-16T04:00:00;102241.66;;;5.98;99.45
69784;BME280;57054;51.978;4.498;2023-02-16T04:02:26;102254.69;;;5.99;99.35
69784;BME280;57054;51.978;4.498;2023-02-16T04:04:52;102252.09;;;5.99;99.30
69784;BME280;57054;51.978;4.498;2023-02-16T04:07:17;102258.13;;;6.00;99.35
69784;BME280;57054;51.978;4.498;2023-02-16T04:09:43;102262.47;;;5.98;99.41
69784;BME280;57054;51.978;4.498;2023-02-16T04:12:10;102269.41;;;5.97;99.18
69784;BME280;57054;51.978;4.498;2023-02-16T04:14:55;102265.94;;;5.96;99.02
69784;BME280;57054;51.978;4.498;2023-02-16T04:17:21;102260.72;;;5.96;99.13
69784;BME280;57054;51.978;4.498;2023-02-16T04:19:46;102267.69;;;5.98;99.12
69784;BME280;57054;51.978;4.498;2023-02-16T04:22:11;102266.81;;;5.97;99.25
69784;BME280;57054;51.978;4.498;2023-02-16T04:24:37;102267.69;;;5.99;99.28
69784;BME280;57054;51.978;4.498;2023-02-16T04:27:02;102259.88;;;5.99;99.44
69784;BME280;57054;51.978;4.498;2023-02-16T04:29:27;102262.50;;;6.01;99.53
69784;BME280;57054;51.978;4.498;2023-02-16T04:31:53;102259.88;;;6.01;99.59
69784;BME280;57054;51.978;4.498;2023-02-16T04:34:19;102253.78;;;6.00;99.67
69784;BME280;57054;51.978;4.498;2023-02-16T04:36:44;102244.28;;;6.01;99.82
69784;BME280;57054;51.978;4.498;2023-02-16T04:39:09;102249.47;;;6.01;99.67
69784;BME280;57054;51.978;4.498;2023-02-16T04:41:35;102252.94;;;6.01;99.74
69784;BME280;57054;51.978;4.498;2023-02-16T04:44:00;102246.88;;;6.01;99.89
69784;BME280;57054;51.978;4.498;2023-02-16T04:46:25;102255.56;;;6.03;99.91
69784;BME280;57054;51.978;4.498;2023-02-16T04:48:51;102255.56;;;6.03;100.00
69784;BME280;57054;51.978;4.498;2023-02-16T04:51:16;102250.34;;;6.03;99.91
69784;BME280;57054;51.978;4.498;2023-02-16T04:53:42;102246.88;;;6.04;100.00
69784;BME280;57054;51.978;4.498;2023-02-16T04:56:09;102250.34;;;6.04;100.00
69784;BME280;57054;51.978;4.498;2023-02-16T04:58:35;102246.00;;;6.05;100.00
69784;BME280;57054;51.978;4.498;2023-02-16T05:01:00;102247.75;;;6.04;100.00
69784;BME280;57054;51.978;4.498;2023-02-16T05:03:26;102244.25;;;6.04;100.00
69784;BME280;57054;51.978;4.498;2023-02-16T05:05:51;102241.66;;;6.04;100.00
69784;BME280;57054;51.978;4.498;2023-02-16T05:08:17;102243.41;;;6.03;100.00
69784;BME280;57054;51.978;4.498;2023-02-16T05:10:42;102235.59;;;6.03;100.00
69784;BME280;57054;51.978;4.498;2023-02-16T05:13:09;102232.16;;;6.03;100.00
69784;BME280;57054;51.978;4.498;2023-02-16T05:15:53;102227.81;;;6.03;100.00
69784;BME280;57054;51.978;4.498;2023-02-16T05:18:19;102219.13;;;6.03;100.00
69784;BME280;57054;51.978;4.498;2023-02-16T05:20:44;102228.69;;;6.02;100.00
69784;BME280;57054;51.978;4.498;2023-02-16T05:23:28;102223.47;;;6.02;100.00
69784;BME280;57054;51.978;4.498;2023-02-16T05:25:53;102222.59;;;6.02;100.00
69784;BME280;57054;51.978;4.498;2023-02-16T05:28:19;102231.28;;;5.99;99.85
69784;BME280;57054;51.978;4.498;2023-02-16T05:30:44;102229.53;;;6.00;99.71
69784;BME280;57054;51.978;4.498;2023-02-16T05:33:10;102230.38;;;6.00;99.95
69784;BME280;57054;51.978;4.498;2023-02-16T05:35:35;102227.81;;;5.97;99.52
69784;BME280;57054;51.978;4.498;2023-02-16T05:38:00;102237.31;;;5.96;99.43
69784;BME280;57054;51.978;4.498;2023-02-16T05:40:26;102242.53;;;5.98;99.35
69784;BME280;57054;51.978;4.498;2023-02-16T05:42:52;102229.53;;;5.98;99.57
69784;BME280;57054;51.978;4.498;2023-02-16T05:45:18;102232.13;;;6.00;99.54
69784;BME280;57054;51.978;4.498;2023-02-16T05:47:43;102225.22;;;5.99;99.56
69784;BME280;57054;51.978;4.498;2023-02-16T05:50:09;102220.88;;;6.02;99.54
69784;BME280;57054;51.978;4.498;2023-02-16T05:52:34;102224.34;;;6.03;99.81
69784;BME280;57054;51.978;4.498;2023-02-16T05:55:00;102237.34;;;6.03;99.70
69784;BME280;57054;51.978;4.498;2023-02-16T05:57:25;102229.53;;;6.03;99.83
69784;BME280;57054;51.978;4.498;2023-02-16T05:59:51;102233.88;;;6.02;99.76
69784;BME280;57054;51.978;4.498;2023-02-16T06:02:16;102230.41;;;6.03;99.65
69784;BME280;57054;51.978;4.498;2023-02-16T06:04:42;102236.50;;;6.02;99.61
69784;BME280;57054;51.978;4.498;2023-02-16T06:07:07;102239.06;;;6.04;99.68
69784;BME280;57054;51.978;4.498;2023-02-16T06:09:32;102234.75;;;6.04;99.72
69784;BME280;57054;51.978;4.498;2023-02-16T06:11:58;102226.06;;;6.04;99.74
69784;BME280;57054;51.978;4.498;2023-02-16T06:14:23;102228.66;;;6.05;99.82
69784;BME280;57054;51.978;4.498;2023-02-16T06:16:49;102235.59;;;6.03;99.64
69784;BME280;57054;51.978;4.498;2023-02-16T06:19:18;102234.75;;;6.01;99.31
69784;BME280;57054;51.978;4.498;2023-02-16T06:21:44;102236.50;;;6.02;99.18
69784;BME280;57054;51.978;4.498;2023-02-16T06:24:11;102236.47;;;6.01;98.88
69784;BME280;57054;51.978;4.498;2023-02-16T06:26:37;102233.88;;;6.01;98.94
69784;BME280;57054;51.978;4.498;2023-02-16T06:29:03;102233.00;;;6.02;99.19
69784;BME280;57054;51.978;4.498;2023-02-16T06:31:28;102227.81;;;6.03;99.45
69784;BME280;57054;51.978;4.498;2023-02-16T06:33:54;102239.94;;;6.04;99.36
69784;BME280;57054;51.978;4.498;2023-02-16T06:36:21;102239.97;;;6.06;99.65
69784;BME280;57054;51.978;4.498;2023-02-16T06:38:47;102235.59;;;6.05;99.33
69784;BME280;57054;51.978;4.498;2023-02-16T06:41:12;102239.94;;;6.04;99.44
69784;BME280;57054;51.978;4.498;2023-02-16T06:43:38;102245.16;;;6.03;99.10
69784;BME280;57054;51.978;4.498;2023-02-16T06:46:03;102252.97;;;6.04;99.30
69784;BME280;57054;51.978;4.498;2023-02-16T06:48:29;102251.19;;;6.02;98.60
69784;BME280;57054;51.978;4.498;2023-02-16T06:50:54;102265.94;;;6.03;98.79
69784;BME280;57054;51.978;4.498;2023-02-16T06:53:20;102259.00;;;6.05;99.08
69784;BME280;57054;51.978;4.498;2023-02-16T06:55:46;102261.63;;;6.05;98.95
69784;BME280;57054;51.978;4.498;2023-02-16T06:58:11;102254.66;;;6.05;99.25
69784;BME280;57054;51.978;4.498;2023-02-16T07:00:37;102254.69;;;6.02;98.93
69784;BME280;57054;51.978;4.498;2023-02-16T07:03:03;102261.63;;;6.03;98.72
69784;BME280;57054;51.978;4.498;2023-02-16T07:05:28;102264.22;;;6.05;99.14
69784;BME280;57054;51.978;4.498;2023-02-16T07:07:54;102269.41;;;6.03;98.90
69784;BME280;57054;51.978;4.498;2023-02-16T07:10:19;102268.56;;;6.04;98.87
69784;BME280;57054;51.978;4.498;2023-02-16T07:12:45;102268.56;;;6.04;99.13
69784;BME280;57054;51.978;4.498;2023-02-16T07:15:11;102260.75;;;6.06;99.35
69784;BME280;57054;51.978;4.498;2023-02-16T07:17:36;102261.63;;;6.08;99.31
69784;BME280;57054;51.978;4.498;2023-02-16T07:20:03;102258.16;;;6.09;99.46
69784;BME280;57054;51.978;4.498;2023-02-16T07:22:29;102267.69;;;6.11;99.78
69784;BME280;57054;51.978;4.498;2023-02-16T07:24:55;102271.16;;;6.10;99.65
69784;BME280;57054;51.978;4.498;2023-02-16T07:27:21;102272.91;;;6.10;99.24
69784;BME280;57054;51.978;4.498;2023-02-16T07:29:47;102268.56;;;6.09;99.17
69784;BME280;57054;51.978;4.498;2023-02-16T07:32:12;102272.88;;;6.08;99.18
69784;BME280;57054;51.978;4.498;2023-02-16T07:34:38;102276.34;;;6.09;99.23
69784;BME280;57054;51.978;4.498;2023-02-16T07:37:04;102279.81;;;6.11;99.51
69784;BME280;57054;51.978;4.498;2023-02-16T07:39:29;102275.50;;;6.11;99.37
69784;BME280;57054;51.978;4.498;2023-02-16T07:41:55;102285.91;;;6.11;99.43
69784;BME280;57054;51.978;4.498;2023-02-16T07:44:20;102286.78;;;6.12;99.39
69784;BME280;57054;51.978;4.498;2023-02-16T07:46:46;102284.19;;;6.13;99.83
69784;BME280;57054;51.978;4.498;2023-02-16T07:49:11;102289.38;;;6.15;99.72
69784;BME280;57054;51.978;4.498;2023-02-16T07:51:36;102299.78;;;6.15;99.31
69784;BME280;57054;51.978;4.498;2023-02-16T07:54:02;102305.00;;;6.15;99.57
69784;BME280;57054;51.978;4.498;2023-02-16T07:56:29;102298.03;;;6.15;99.62
69784;BME280;57054;51.978;4.498;2023-02-16T07:58:56;102304.09;;;6.16;99.59
69784;BME280;57054;51.978;4.498;2023-02-16T08:01:22;102305.84;;;6.17;99.57
69784;BME280;57054;51.978;4.498;2023-02-16T08:03:48;102304.97;;;6.18;99.61
69784;BME280;57054;51.978;4.498;2023-02-16T08:06:14;102305.88;;;6.19;99.73
69784;BME280;57054;51.978;4.498;2023-02-16T08:08:40;102310.19;;;6.18;100.00
69784;BME280;57054;51.978;4.498;2023-02-16T08:11:19;102310.19;;;6.18;100.00
69784;BME280;57054;51.978;4.498;2023-02-16T08:13:45;102317.13;;;6.19;100.00
69784;BME280;57054;51.978;4.498;2023-02-16T08:16:22;102311.94;;;6.21;100.00
69784;BME280;57054;51.978;4.498;2023-02-16T08:18:48;102311.94;;;6.21;100.00
69784;BME280;57054;51.978;4.498;2023-02-16T08:21:23;102311.94;;;6.22;100.00
69784;BME280;57054;51.978;4.498;2023-02-16T08:24:03;102313.66;;;6.23;100.00
69784;BME280;57054;51.978;4.498;2023-02-16T08:26:35;102315.41;;;6.23;100.00
69784;BME280;57054;51.978;4.498;2023-02-16T08:29:02;102317.13;;;6.24;100.00
69784;BME280;57054;51.978;4.498;2023-02-16T08:31:29;102323.22;;;6.24;100.00
69784;BME280;57054;51.978;4.498;2023-02-16T08:33:57;102318.88;;;6.25;100.00
69784;BME280;57054;51.978;4.498;2023-02-16T08:36:25;102323.22;;;6.26;100.00
69784;BME280;57054;51.978;4.498;2023-02-16T08:38:54;102327.53;;;6.28;100.00
69784;BME280;57054;51.978;4.498;2023-02-16T08:41:22;102318.88;;;6.29;100.00
69784;BME280;57054;51.978;4.498;2023-02-16T08:43:48;102319.75;;;6.31;100.00
69784;BME280;57054;51.978;4.498;2023-02-16T08:46:14;102325.81;;;6.32;100.00
69784;BME280;57054;51.978;4.498;2023-02-16T08:48:40;102318.00;;;6.33;100.00
69784;BME280;57054;51.978;4.498;2023-02-16T08:51:06;102313.66;;;6.34;100.00
69784;BME280;57054;51.978;4.498;2023-02-16T08:53:33;102307.59;;;6.35;100.00
69784;BME280;57054;51.978;4.498;2023-02-16T08:55:59;102318.88;;;6.37;100.00
69784;BME280;57054;51.978;4.498;2023-02-16T08:58:27;102315.38;;;6.37;100.00
69784;BME280;57054;51.978;4.498;2023-02-16T09:00:52;102307.59;;;6.37;100.00
69784;BME280;57054;51.978;4.498;2023-02-16T09:03:18;102311.94;;;6.39;100.00
69784;BME280;57054;51.978;4.498;2023-02-16T09:05:48;102307.59;;;6.40;100.00
69784;BME280;57054;51.978;4.498;2023-02-16T09:08:14;102319.75;;;6.42;100.00
69784;BME280;57054;51.978;4.498;2023-02-16T09:10:41;102312.81;;;6.43;100.00
69784;BME280;57054;51.978;4.498;2023-02-16T09:13:06;102316.28;;;6.45;100.00
69784;BME280;57054;51.978;4.498;2023-02-16T09:15:39;102323.22;;;6.46;100.00
69784;BME280;57054;51.978;4.498;2023-02-16T09:18:06;102315.41;;;6.46;100.00
69784;BME280;57054;51.978;4.498;2023-02-16T09:20:36;102306.72;;;6.45;100.00
69784;BME280;57054;51.978;4.498;2023-02-16T09:23:04;102304.97;;;6.47;100.00
69784;BME280;57054;51.978;4.498;2023-02-16T09:25:30;102310.22;;;6.46;100.00
69784;BME280;57054;51.978;4.498;2023-02-16T09:27:58;102311.94;;;6.47;100.00
69784;BME280;57054;51.978;4.498;2023-02-16T09:30:23;102307.59;;;6.47;100.00
69784;BME280;57054;51.978;4.498;2023-02-16T09:32:49;102311.06;;;6.48;100.00
69784;BME280;57054;51.978;4.498;2023-02-16T09:35:15;102311.06;;;6.48;100.00
69784;BME280;57054;51.978;4.498;2023-02-16T09:37:40;102313.69;;;6.48;100.00
69784;BME280;57054;51.978;4.498;2023-02-16T09:40:06;102305.88;;;6.49;100.00
69784;BME280;57054;51.978;4.498;2023-02-16T09:45:16;102303.25;;;6.54;100.00
69784;BME280;57054;51.978;4.498;2023-02-16T09:47:44;102298.91;;;6.58;100.00
69784;BME280;57054;51.978;4.498;2023-02-16T09:50:16;102294.56;;;6.61;100.00
69784;BME280;57054;51.978;4.498;2023-02-16T09:52:49;102291.97;;;6.64;100.00
69784;BME280;57054;51.978;4.498;2023-02-16T09:55:17;102286.75;;;6.67;100.00
69784;BME280;57054;51.978;4.498;2023-02-16T10:05:46;102296.28;;;6.79;100.00
69784;BME280;57054;51.978;4.498;2023-02-16T10:08:24;102289.34;;;6.80;100.00
69784;BME280;57054;51.978;4.498;2023-02-16T10:13:31;102278.94;;;6.81;100.00
69784;BME280;57054;51.978;4.498;2023-02-16T10:16:00;102277.19;;;6.82;100.00
69784;BME280;57054;51.978;4.498;2023-02-16T10:18:29;102271.13;;;6.86;100.00
69784;BME280;57054;51.978;4.498;2023-02-16T10:20:57;102265.88;;;6.89;100.00
69784;BME280;57054;51.978;4.498;2023-02-16T10:26:31;102284.09;;;6.97;100.00
69784;BME280;57054;51.978;4.498;2023-02-16T10:29:00;102284.09;;;6.97;100.00
69784;BME280;57054;51.978;4.498;2023-02-16T10:31:40;102277.13;;;7.00;100.00
69784;BME280;57054;51.978;4.498;2023-02-16T10:47:41;102281.41;;;7.17;100.00
69784;BME280;57054;51.978;4.498;2023-02-16T10:50:31;102285.78;;;7.19;100.00
69784;BME280;57054;51.978;4.498;2023-02-16T10:53:05;102290.97;;;7.21;100.00
69784;BME280;57054;51.978;4.498;2023-02-16T10:55:32;102292.69;;;7.22;100.00
69784;BME280;57054;51.978;4.498;2023-02-16T10:58:00;102281.41;;;7.23;100.00
69784;BME280;57054;51.978;4.498;2023-02-16T11:00:49;102280.53;;;7.25;100.00
69784;BME280;57054;51.978;4.498;2023-02-16T11:03:18;102272.72;;;7.28;100.00
69784;BME280;57054;51.978;4.498;2023-02-16T11:05:46;102272.69;;;7.33;100.00
69784;BME280;57054;51.978;4.498;2023-02-16T11:08:11;102268.31;;;7.37;100.00
69784;BME280;57054;51.978;4.498;2023-02-16T11:10:50;102271.81;;;7.36;100.00
69784;BME280;57054;51.978;4.498;2023-02-16T11:13:24;102272.66;;;7.38;100.00
69784;BME280;57054;51.978;4.498;2023-02-16T11:15:53;102268.31;;;7.40;100.00
69784;BME280;57054;51.978;4.498;2023-02-16T11:20:58;102267.41;;;7.45;100.00
69784;BME280;57054;51.978;4.498;2023-02-16T11:23:30;102263.94;;;7.49;100.00
69784;BME280;57054;51.978;4.498;2023-02-16T11:26:05;102262.16;;;7.56;100.00
69784;BME280;57054;51.978;4.498;2023-02-16T11:28:39;102269.91;;;7.64;100.00
69784;BME280;57054;51.978;4.498;2023-02-16T11:33:37;102262.94;;;7.71;100.00
69784;BME280;57054;51.978;4.498;2023-02-16T11:36:32;102255.97;;;7.74;100.00
69784;BME280;57054;51.978;4.498;2023-02-16T11:39:22;102258.56;;;7.77;100.00
69784;BME280;57054;51.978;4.498;2023-02-16T11:41:58;102255.09;;;7.77;100.00
69784;BME280;57054;51.978;4.498;2023-02-16T11:44:35;102256.81;;;7.79;100.00
69784;BME280;57054;51.978;4.498;2023-02-16T11:47:07;102256.78;;;7.82;100.00
69784;BME280;57054;51.978;4.498;2023-02-16T11:49:38;102245.47;;;7.85;100.00
69784;BME280;57054;51.978;4.498;2023-02-16T11:52:27;102247.16;;;7.87;100.00
69784;BME280;57054;51.978;4.498;2023-02-16T11:54:55;102235.88;;;7.90;100.00
69784;BME280;57054;51.978;4.498;2023-02-16T11:57:30;102237.56;;;7.93;100.00
69784;BME280;57054;51.978;4.498;2023-02-16T11:59:57;102234.94;;;7.96;100.00
69784;BME280;57054;51.978;4.498;2023-02-16T12:05:37;102225.31;;;8.04;100.00
69784;BME280;57054;51.978;4.498;2023-02-16T12:08:30;102222.69;;;8.08;100.00
69784;BME280;57054;51.978;4.498;2023-02-16T12:13:50;102207.84;;;8.12;100.00
69784;BME280;57054;51.978;4.498;2023-02-16T12:22:18;102193.88;;;8.21;100.00
69784;BME280;57054;51.978;4.498;2023-02-16T12:30:21;102186.78;;;8.34;100.00
69784;BME280;57054;51.978;4.498;2023-02-16T12:41:40;102188.38;;;8.52;100.00
69784;BME280;57054;51.978;4.498;2023-02-16T12:44:14;102185.72;;;8.56;100.00
69784;BME280;57054;51.978;4.498;2023-02-16T12:46:43;102178.69;;;8.60;100.00
69784;BME280;57054;51.978;4.498;2023-02-16T12:49:19;102171.69;;;8.63;100.00
69784;BME280;57054;51.978;4.498;2023-02-16T12:51:55;102167.28;;;8.69;100.00
69784;BME280;57054;51.978;4.498;2023-02-16T12:54:36;102177.69;;;8.73;100.00
69784;BME280;57054;51.978;4.498;2023-02-16T12:57:10;102171.59;;;8.74;100.00
69784;BME280;57054;51.978;4.498;2023-02-16T13:02:10;102171.53;;;8.79;100.00
69784;BME280;57054;51.978;4.498;2023-02-16T13:04:44;102163.72;;;8.77;100.00
69784;BME280;57054;51.978;4.498;2023-02-16T13:07:24;102141.06;;;8.78;100.00
69784;BME280;57054;51.978;4.498;2023-02-16T13:10:22;102129.75;;;8.79;100.00
69784;BME280;57054;51.978;4.498;2023-02-16T13:12:59;102127.13;;;8.79;100.00
69784;BME280;57054;51.978;4.498;2023-02-16T13:15:40;102121.94;;;8.77;100.00
69784;BME280;57054;51.978;4.498;2023-02-16T13:20:41;102129.69;;;8.82;100.00
69784;BME280;57054;51.978;4.498;2023-02-16T13:40:59;102107.94;;;8.81;100.00
69784;BME280;57054;51.978;4.498;2023-02-16T13:43:18;102098.38;;;8.80;100.00
69784;BME280;57054;51.978;4.498;2023-02-16T13:45:46;102098.38;;;8.80;100.00
69784;BME280;57054;51.978;4.498;2023-02-16T13:48:27;102092.28;;;8.80;100.00
69784;BME280;57054;51.978;4.498;2023-02-16T13:51:02;102074.00;;;8.80;100.00
69784;BME280;57054;51.978;4.498;2023-02-16T13:53:36;102076.59;;;8.80;100.00
69784;BME280;57054;51.978;4.498;2023-02-16T13:58:46;102080.94;;;8.81;100.00
69784;BME280;57054;51.978;4.498;2023-02-16T14:03:59;102069.56;;;8.85;100.00
69784;BME280;57054;51.978;4.498;2023-02-16T14:14:31;102060.81;;;8.88;100.00
69784;BME280;57054;51.978;4.498;2023-02-16T14:19:38;102056.50;;;8.85;100.00
69784;BME280;57054;51.978;4.498;2023-02-16T14:22:09;102065.19;;;8.86;100.00
69784;BME280;57054;51.978;4.498;2023-02-16T14:24:37;102061.72;;;8.85;100.00
69784;BME280;57054;51.978;4.498;2023-02-16T14:27:08;102055.66;;;8.84;100.00
69784;BME280;57054;51.978;4.498;2023-02-16T14:29:44;102055.66;;;8.83;100.00
69784;BME280;57054;51.978;4.498;2023-02-16T14:32:30;102054.81;;;8.82;100.00
69784;BME280;57054;51.978;4.498;2023-02-16T14:37:53;102071.38;;;8.81;100.00
69784;BME280;57054;51.978;4.498;2023-02-16T14:43:02;102060.09;;;8.78;100.00
69784;BME280;57054;51.978;4.498;2023-02-16T14:48:43;102060.16;;;8.73;100.00
69784;BME280;57054;51.978;4.498;2023-02-16T14:56:51;102057.59;;;8.69;100.00
69784;BME280;57054;51.978;4.498;2023-02-16T15:01:52;102059.41;;;8.65;100.00
69784;BME280;57054;51.978;4.498;2023-02-16T15:04:31;102059.41;;;8.63;100.00
69784;BME280;57054;51.978;4.498;2023-02-16T15:06:59;102047.25;;;8.61;100.00
69784;BME280;57054;51.978;4.498;2023-02-16T15:09:32;102043.81;;;8.60;100.00
69784;BME280;57054;51.978;4.498;2023-02-16T15:12:04;102051.63;;;8.60;100.00
69784;BME280;57054;51.978;4.498;2023-02-16T15:17:38;102041.19;;;8.60;100.00
69784;BME280;57054;51.978;4.498;2023-02-16T15:20:15;102051.63;;;8.60;100.00
69784;BME280;57054;51.978;4.498;2023-02-16T15:22:53;102057.72;;;8.61;100.00
69784;BME280;57054;51.978;4.498;2023-02-16T15:25:35;102045.53;;;8.60;100.00
69784;BME280;57054;51.978;4.498;2023-02-16T15:30:38;102050.75;;;8.58;100.00
69784;BME280;57054;51.978;4.498;2023-02-16T15:33:11;102046.44;;;8.57;100.00
69784;BME280;57054;51.978;4.498;2023-02-16T15:35:42;102047.31;;;8.56;100.00
69784;BME280;57054;51.978;4.498;2023-02-16T15:38:23;102057.75;;;8.56;100.00
69784;BME280;57054;51.978;4.498;2023-02-16T15:40:53;102061.28;;;8.54;100.00
69784;BME280;57054;51.978;4.498;2023-02-16T15:43:27;102050.84;;;8.52;100.00
69784;BME280;57054;51.978;4.498;2023-02-16T15:45:55;102056.94;;;8.51;100.00
69784;BME280;57054;51.978;4.498;2023-02-16T15:48:24;102057.84;;;8.50;100.00
69784;BME280;57054;51.978;4.498;2023-02-16T15:50:58;102061.31;;;8.49;100.00